»·PEaware :: N7154N KAPV-KBFL

N7154N :: KAPV-KBFL

FLIGHT INFORMATION

Flight Status: Arrived
Operator: Privately registered:
United States
More flights under this callsign
Pilot: Jonathan Z. (8601)
Aircraft: BEECH AIRCRAFT DEBONAIR BONANZA
(BE33)
More flights by this aircraft type
Origin: KAPV Apple Valley
United States
Destination: KBFL Meadows
United States
More flights between these airports :: More routes between these airports
Route: APLES V386 PMD FASTO2
File this flight plan on PilotEdge
Remarks:
Altitude:
(Current/Filed)
12,000ft
Speed:
(Current/Filed)
150kts
Departed: 24-Dec-20 10:59 AM
Arrived: 24-Dec-20 11:47 AM
Distance/Time
Traveled:
105nm/0:48
Distance/Time
To Go:
Arrived

Flight Plot

Page will automatically refresh every two minutes.

Flight plan parsing failed; only flown route is shown


Map Options




Map Legend


Flown Route
Filed Route
Departure Airport
Arrival Airport
Navaid (VOR, NDB)
Fix

Horizontal Profiles

Position Reports

Time Latitude Longitude Heading Altitude Ground
Speed
24-Dec-20 10:57 34.587672 -117.184093 96 3066ft 0kts
24-Dec-20 10:58 34.587602 -117.183142 115 3066ft 0kts
24-Dec-20 10:59 34.583462 -117.183921 193 3067ft 74kts
24-Dec-20 11:00 34.566835 -117.192109 224 3691ft 89kts
24-Dec-20 11:01 34.560317 -117.221551 260 4642ft 98kts
24-Dec-20 11:02 34.561494 -117.254581 271 5589ft 100kts
24-Dec-20 11:03 34.561141 -117.287483 262 6508ft 97kts
24-Dec-20 11:04 34.559151 -117.320692 265 7320ft 101kts
24-Dec-20 11:05 34.560271 -117.354502 266 8133ft 100kts
24-Dec-20 11:06 34.560355 -117.388351 268 8878ft 101kts
24-Dec-20 11:07 34.560878 -117.422499 270 9557ft 103kts
24-Dec-20 11:08 34.565755 -117.456521 279 10274ft 102kts
24-Dec-20 11:09 34.569720 -117.494702 278 10584ft 132kts
24-Dec-20 11:10 34.577240 -117.538209 275 11199ft 124kts
24-Dec-20 11:11 34.580492 -117.579790 272 11741ft 124kts
24-Dec-20 11:12 34.583894 -117.623583 274 11962ft 144kts
24-Dec-20 11:13 34.589532 -117.674606 279 11996ft 158kts
24-Dec-20 11:13 34.593205 -117.718776 274 12040ft 163kts
24-Dec-20 11:14 34.598116 -117.774696 272 11979ft 167kts
24-Dec-20 11:16 34.604908 -117.839839 278 11979ft 169kts
24-Dec-20 11:16 34.612916 -117.886427 280 11960ft 169kts
24-Dec-20 11:17 34.618685 -117.942607 271 11965ft 168kts
24-Dec-20 11:18 34.621797 -117.998735 279 11983ft 168kts
24-Dec-20 11:19 34.634620 -118.053995 288 11943ft 168kts
24-Dec-20 11:20 34.659515 -118.099880 318 12026ft 170kts
24-Dec-20 11:21 34.693246 -118.139787 309 12068ft 169kts
24-Dec-20 11:22 34.725928 -118.181826 319 12080ft 170kts
24-Dec-20 11:23 34.760799 -118.221632 306 12033ft 172kts
24-Dec-20 11:24 34.790254 -118.267048 303 12051ft 170kts
24-Dec-20 11:25 34.819615 -118.312739 308 12001ft 174kts
24-Dec-20 11:26 34.853561 -118.354138 313 11998ft 173kts
24-Dec-20 11:27 34.888786 -118.394230 310 11965ft 173kts
24-Dec-20 11:28 34.920357 -118.438117 308 11942ft 173kts
24-Dec-20 11:29 34.953538 -118.479384 310 12035ft 169kts
24-Dec-20 11:30 34.984938 -118.522954 311 11982ft 174kts
24-Dec-20 11:31 35.018958 -118.562863 315 12020ft 172kts
24-Dec-20 11:32 35.054945 -118.602779 318 11784ft 181kts
24-Dec-20 11:33 35.095081 -118.643392 314 11250ft 188kts
24-Dec-20 11:34 35.133888 -118.684844 313 10605ft 181kts
24-Dec-20 11:35 35.169326 -118.727628 311 10014ft 181kts
24-Dec-20 11:36 35.201908 -118.774194 306 9261ft 188kts
24-Dec-20 11:37 35.235811 -118.821526 314 8303ft 186kts
24-Dec-20 11:38 35.274083 -118.863177 316 7296ft 182kts
24-Dec-20 11:39 35.305596 -118.902068 309 6291ft 138kts
24-Dec-20 11:40 35.329911 -118.930262 312 5047ft 117kts
24-Dec-20 11:41 35.352764 -118.957798 313 3831ft 113kts
24-Dec-20 11:42 35.375414 -118.985672 314 2575ft 114kts
24-Dec-20 11:43 35.397245 -119.012210 312 1519ft 108kts
24-Dec-20 11:44 35.417786 -119.036997 312 896ft 101kts
24-Dec-20 11:45 35.434327 -119.056827 313 510ft 47kts
24-Dec-20 11:46 35.436435 -119.054819 65 510ft 1kts

Navigation Log

Ident Type
Flight plan parsing failed, navigation log unavailable